sensor_id;sensor_type;location;lat;lon;timestamp;P1;durP1;ratioP1;P2;durP2;ratioP2
9094;SDS011;4583;49.796;9.902;2023-11-21T00:00:49;2.67;;;1.70;;
9094;SDS011;4583;49.796;9.902;2023-11-21T00:10:51;3.23;;;1.67;;
9094;SDS011;4583;49.796;9.902;2023-11-21T00:20:53;2.60;;;1.70;;
9094;SDS011;4583;49.796;9.902;2023-11-21T00:30:55;4.90;;;1.93;;
9094;SDS011;4583;49.796;9.902;2023-11-21T00:40:58;4.40;;;1.63;;
9094;SDS011;4583;49.796;9.902;2023-11-21T00:51:00;3.20;;;1.90;;
9094;SDS011;4583;49.796;9.902;2023-11-21T01:01:02;4.47;;;2.27;;
9094;SDS011;4583;49.796;9.902;2023-11-21T01:11:04;3.83;;;2.17;;
9094;SDS011;4583;49.796;9.902;2023-11-21T01:21:09;4.83;;;2.43;;
9094;SDS011;4583;49.796;9.902;2023-11-21T01:31:11;9.13;;;2.63;;
9094;SDS011;4583;49.796;9.902;2023-11-21T01:41:14;5.10;;;2.30;;
9094;SDS011;4583;49.796;9.902;2023-11-21T01:51:16;5.80;;;2.43;;
9094;SDS011;4583;49.796;9.902;2023-11-21T02:01:19;4.20;;;2.20;;
9094;SDS011;4583;49.796;9.902;2023-11-21T02:11:22;3.10;;;2.33;;
9094;SDS011;4583;49.796;9.902;2023-11-21T02:21:25;7.30;;;2.40;;
9094;SDS011;4583;49.796;9.902;2023-11-21T02:31:27;12.57;;;2.50;;
9094;SDS011;4583;49.796;9.902;2023-11-21T02:41:31;3.07;;;2.00;;
9094;SDS011;4583;49.796;9.902;2023-11-21T02:51:33;7.27;;;2.33;;
9094;SDS011;4583;49.796;9.902;2023-11-21T03:01:35;6.57;;;2.00;;
9094;SDS011;4583;49.796;9.902;2023-11-21T03:11:37;8.20;;;2.20;;
9094;SDS011;4583;49.796;9.902;2023-11-21T03:21:40;5.10;;;2.23;;
9094;SDS011;4583;49.796;9.902;2023-11-21T03:31:42;7.70;;;2.30;;
9094;SDS011;4583;49.796;9.902;2023-11-21T03:41:44;5.33;;;2.10;;
9094;SDS011;4583;49.796;9.902;2023-11-21T03:51:46;8.50;;;3.40;;
9094;SDS011;4583;49.796;9.902;2023-11-21T04:01:48;5.57;;;2.10;;
9094;SDS011;4583;49.796;9.902;2023-11-21T04:11:51;6.57;;;2.17;;
9094;SDS011;4583;49.796;9.902;2023-11-21T04:21:53;6.00;;;2.20;;
9094;SDS011;4583;49.796;9.902;2023-11-21T04:31:55;5.60;;;2.20;;
9094;SDS011;4583;49.796;9.902;2023-11-21T04:41:57;5.87;;;2.50;;
9094;SDS011;4583;49.796;9.902;2023-11-21T04:52:00;6.47;;;3.30;;
9094;SDS011;4583;49.796;9.902;2023-11-21T05:02:02;9.07;;;3.80;;
9094;SDS011;4583;49.796;9.902;2023-11-21T05:14:19;8.20;;;3.50;;
9094;SDS011;4583;49.796;9.902;2023-11-21T05:24:21;6.07;;;2.97;;
9094;SDS011;4583;49.796;9.902;2023-11-21T05:34:23;6.73;;;2.90;;
9094;SDS011;4583;49.796;9.902;2023-11-21T05:44:27;7.50;;;3.00;;
9094;SDS011;4583;49.796;9.902;2023-11-21T05:54:29;8.67;;;3.17;;
9094;SDS011;4583;49.796;9.902;2023-11-21T06:04:31;11.63;;;3.70;;
9094;SDS011;4583;49.796;9.902;2023-11-21T06:14:34;9.40;;;4.30;;
9094;SDS011;4583;49.796;9.902;2023-11-21T06:24:36;8.90;;;3.83;;
9094;SDS011;4583;49.796;9.902;2023-11-21T06:34:38;7.03;;;3.63;;
9094;SDS011;4583;49.796;9.902;2023-11-21T06:44:41;18.97;;;3.60;;
9094;SDS011;4583;49.796;9.902;2023-11-21T06:54:43;12.77;;;4.40;;
